Time;durP1;ratioP1;P1;durP2;ratioP2;P2;SDS_P1;SDS_P2;PMS_P1;PMS_P2;Temp;Humidity;BMP_temperature;BMP_pressure;BME280_temperature;BME280_humidity;BME280_pressure;Samples;Min_cycle;Max_cycle;Signal;HPM_P1;HPM_P2
2023/04/11 00:00:52;;;;;;;11.82;9.65;;;;;;;6.10;100.00;62628.41;4930702;29;20206;-80
2023/04/11 00:03:21;;;;;;;13.98;9.90;;;;;;;6.14;100.00;62629.47;4932635;29;20241;-79
2023/04/11 00:05:48;;;;;;;11.57;9.25;;;;;;;6.11;100.00;62626.41;4917685;29;20429;-80
2023/04/11 00:08:15;;;;;;;12.98;9.55;;;;;;;6.07;100.00;62620.25;4921402;29;20232;-79
2023/04/11 00:10:42;;;;;;;9.98;8.98;;;;;;;6.06;100.00;62621.25;4930117;29;20206;-79
2023/04/11 00:13:10;;;;;;;11.52;9.35;;;;;;;6.09;100.00;62626.84;4934362;29;20230;-78
2023/04/11 00:15:38;;;;;;;11.07;9.20;;;;;;;6.08;100.00;62618.22;4932918;29;20273;-81
2023/04/11 00:18:06;;;;;;;11.65;8.65;;;;;;;6.00;100.00;62613.03;4932445;29;20218;-78
2023/04/11 00:20:35;;;;;;;11.35;9.30;;;;;;;6.03;100.00;62616.13;4931676;29;20467;-79
2023/04/11 00:23:02;;;;;;;12.80;9.57;;;;;;;6.04;100.00;62619.19;4932400;29;20245;-79
2023/04/11 00:25:30;;;;;;;12.20;9.60;;;;;;;6.01;100.00;62618.59;4930848;29;20556;-79
2023/04/11 00:27:57;;;;;;;11.90;9.05;;;;;;;5.97;100.00;62611.97;4928684;29;20237;-79
2023/04/11 00:30:24;;;;;;;14.73;9.55;;;;;;;5.97;100.00;62614.50;4932775;29;20253;-80
2023/04/11 00:32:51;;;;;;;10.25;9.00;;;;;;;5.93;100.00;62607.84;4931285;29;20229;-79
2023/04/11 00:35:19;;;;;;;12.57;8.90;;;;;;;5.97;100.00;62614.50;4932689;29;20202;-78
2023/04/11 00:37:53;;;;;;;10.82;8.88;;;;;;;6.00;100.00;62612.53;4929399;29;20402;-78
2023/04/11 00:40:20;;;;;;;10.55;9.23;;;;;;;6.09;100.00;62624.84;4929580;29;20225;-78
2023/04/11 00:42:47;;;;;;;13.35;9.38;;;;;;;6.03;100.00;62616.13;4932146;29;20221;-79
2023/04/11 00:45:14;;;;;;;14.00;10.23;;;;;;;6.00;100.00;62615.56;4929674;29;20488;-79
2023/04/11 00:47:42;;;;;;;12.07;9.48;;;;;;;5.97;100.00;62615.00;4931619;29;20289;-81
2023/04/11 00:50:12;;;;;;;12.00;9.18;;;;;;;6.03;100.00;62618.13;4931862;29;20237;-78
2023/04/11 00:52:40;;;;;;;12.73;9.38;;;;;;;6.05;100.00;62618.19;4933764;29;20233;-78
2023/04/11 00:55:10;;;;;;;12.73;9.35;;;;;;;6.06;100.00;62624.28;4921323;29;20274;-80
2023/04/11 00:57:37;;;;;;;13.35;10.20;;;;;;;6.07;100.00;62622.78;4915360;29;20453;-79
2023/04/11 01:00:08;;;;;;;13.23;9.35;;;;;;;6.12;100.00;62627.94;4930725;29;20229;-80
2023/04/11 01:02:36;;;;;;;11.63;9.02;;;;;;;6.15;100.00;62627.97;4930425;29;20254;-79
2023/04/11 01:05:03;;;;;;;10.10;9.05;;;;;;;6.20;100.00;62635.66;4927601;29;20202;-79
2023/04/11 01:07:31;;;;;;;11.73;9.27;;;;;;;6.09;100.00;62624.34;4928755;29;20249;-78
2023/04/11 01:10:01;;;;;;;8.98;8.07;;;;;;;6.11;100.00;62626.91;4930825;29;20250;-78
2023/04/11 01:12:30;;;;;;;10.10;8.70;;;;;;;6.09;100.00;62624.84;4928957;29;20249;-77
2023/04/11 01:14:58;;;;;;;12.20;9.23;;;;;;;6.14;100.00;62627.47;4929545;29;20194;-78
2023/04/11 01:17:25;;;;;;;11.93;9.25;;;;;;;6.13;100.00;62626.44;4930177;29;20228;-78
2023/04/11 01:19:53;;;;;;;10.05;7.90;;;;;;;6.18;100.00;62639.16;4929024;29;20198;-78
2023/04/11 01:22:22;;;;;;;10.95;9.30;;;;;;;6.16;100.00;62634.06;4925123;29;20305;-78
2023/04/11 01:24:51;;;;;;;11.45;7.68;;;;;;;6.20;100.00;62638.72;4934086;29;20202;-78
2023/04/11 01:27:19;;;;;;;12.20;9.48;;;;;;;6.24;100.00;62642.31;4933544;29;20276;-78
2023/04/11 01:29:46;;;;;;;10.77;8.38;;;;;;;6.17;100.00;62630.03;4934874;29;20235;-77
2023/04/11 01:32:13;;;;;;;10.60;8.73;;;;;;;6.16;100.00;62637.09;4933222;29;20236;-80
2023/04/11 01:34:41;;;;;;;13.30;9.85;;;;;;;6.19;100.00;62637.16;4935003;29;20202;-79
2023/04/11 01:37:08;;;;;;;10.52;8.65;;;;;;;6.16;100.00;62632.06;4932811;29;20266;-78
2023/04/11 01:39:35;;;;;;;11.98;8.68;;;;;;;6.11;100.00;62629.44;4933941;29;20202;-79
2023/04/11 01:42:05;;;;;;;11.45;9.07;;;;;;;6.09;100.00;62624.34;4935708;29;20229;-79
2023/04/11 01:44:32;;;;;;;10.52;8.80;;;;;;;6.12;100.00;62624.91;4935691;29;20213;-79
2023/04/11 01:46:59;;;;;;;8.23;7.38;;;;;;;6.05;100.00;62622.72;4932301;29;20228;-78
2023/04/11 01:49:26;;;;;;;11.13;8.45;;;;;;;6.05;100.00;62620.72;4936151;29;20217;-79
2023/04/11 01:51:53;;;;;;;11.20;8.45;;;;;;;6.02;100.00;62615.09;4932322;29;20234;-79
2023/04/11 01:54:20;;;;;;;11.07;8.98;;;;;;;5.98;100.00;62613.00;4933239;29;20276;-77
2023/04/11 01:56:48;;;;;;;11.50;8.48;;;;;;;5.93;100.00;62612.88;4936062;29;20222;-79
2023/04/11 01:59:16;;;;;;;10.68;8.90;;;;;;;6.01;100.00;62613.53;4919199;29;20211;-78
2023/04/11 02:01:43;;;;;;;13.70;9.73;;;;;;;6.01;100.00;62616.59;4920058;29;20226;-78
2023/04/11 02:04:10;;;;;;;13.05;8.65;;;;;;;5.90;100.00;62605.28;4932810;29;20210;-77
2023/04/11 02:06:38;;;;;;;12.88;10.10;;;;;;;5.93;100.00;62605.31;4931352;29;20356;-76
2023/04/11 02:09:05;;;;;;;10.45;9.18;;;;;;;5.93;100.00;62608.34;4931410;29;20229;-78
2023/04/11 02:11:32;;;;;;;12.68;9.55;;;;;;;5.88;100.00;62603.72;4920199;29;20274;-77
2023/04/11 02:14:01;;;;;;;13.35;9.73;;;;;;;5.92;100.00;62606.81;4937164;29;20208;-80
2023/04/11 02:16:30;;;;;;;15.45;10.38;;;;;;;5.76;100.00;62595.88;4924724;29;20218;-81
2023/04/11 02:18:57;;;;;;;12.05;9.35;;;;;;;5.91;100.00;62605.78;4915154;29;20226;-77
2023/04/11 02:21:24;;;;;;;12.38;9.70;;;;;;;5.90;100.00;62600.22;4915739;29;20207;-79
2023/04/11 02:23:51;;;;;;;12.20;9.75;;;;;;;5.92;100.00;62609.34;4930625;29;20202;-78
2023/04/11 02:26:18;;;;;;;13.77;9.93;;;;;;;5.98;100.00;62610.47;4933283;29;20433;-79
2023/04/11 02:28:45;;;;;;;13.63;10.00;;;;;;;5.98;100.00;62615.50;4934490;29;20230;-79
2023/04/11 02:31:11;;;;;;;13.43;10.13;;;;;;;5.98;100.00;62610.47;4933578;29;20261;-79
2023/04/11 02:33:40;;;;;;;12.20;9.48;;;;;;;5.96;100.00;62611.44;4932568;29;20217;-76
2023/04/11 02:36:07;;;;;;;13.75;9.82;;;;;;;5.96;100.00;62611.44;4936013;29;20254;-79
2023/04/11 02:38:36;;;;;;;11.68;9.23;;;;;;;5.92;100.00;62609.34;4926216;29;20215;-78
2023/04/11 02:41:03;;;;;;;15.02;10.77;;;;;;;5.87;100.00;62601.66;4925545;29;20198;-78
2023/04/11 02:43:31;;;;;;;15.50;10.85;;;;;;;5.96;100.00;62613.44;4932823;29;20250;-79
2023/04/11 02:45:58;;;;;;;14.25;10.48;;;;;;;5.94;100.00;62611.91;4927221;29;20208;-78
2023/04/11 02:48:24;;;;;;;12.95;10.07;;;;;;;5.88;100.00;62600.69;4932495;29;20260;-77
2023/04/11 02:50:53;;;;;;;15.18;10.40;;;;;;;5.83;100.00;62598.06;4931778;29;20404;-77
2023/04/11 02:53:20;;;;;;;16.08;11.38;;;;;;;5.83;100.00;62596.03;4925769;29;20234;-77
2023/04/11 02:55:47;;;;;;;12.93;9.43;;;;;;;5.76;100.00;62588.28;4933123;29;20194;-77
2023/04/11 02:58:16;;;;;;;13.38;10.93;;;;;;;5.84;100.00;62599.06;4930597;29;20222;-79
2023/04/11 03:00:43;;;;;;;19.02;12.25;;;;;;;5.80;100.00;62595.44;4915749;29;20203;-77
2023/04/11 03:03:11;;;;;;;15.75;11.82;;;;;;;5.76;100.00;62593.34;4932911;29;20229;-77
2023/04/11 03:05:38;;;;;;;13.20;9.65;;;;;;;5.62;100.00;62579.44;4930643;29;20202;-77
2023/04/11 03:08:07;;;;;;;13.00;10.02;;;;;;;5.72;100.00;62584.16;4929004;29;20259;-78
2023/04/11 03:10:34;;;;;;;15.15;10.80;;;;;;;5.72;100.00;62584.69;4932053;29;20217;-77
2023/04/11 03:13:01;;;;;;;16.75;10.98;;;;;;;5.75;100.00;62592.31;4932250;29;20309;-78
2023/04/11 03:15:31;;;;;;;17.38;11.88;;;;;;;5.78;100.00;62590.84;4932084;29;20222;-78
2023/04/11 03:17:58;;;;;;;14.65;11.38;;;;;;;5.82;100.00;62597.00;4932605;29;20531;-78
2023/04/11 03:20:25;;;;;;;16.23;10.52;;;;;;;5.85;100.00;62603.16;4934036;29;20230;-78
2023/04/11 03:22:52;;;;;;;15.13;10.98;;;;;;;5.84;100.00;62601.59;4930983;29;20285;-78
2023/04/11 03:25:21;;;;;;;14.00;10.63;;;;;;;5.76;100.00;62588.28;4931863;29;20202;-78
2023/04/11 03:27:48;;;;;;;14.90;10.85;;;;;;;5.87;100.00;62604.19;4911120;29;20247;-78
2023/04/11 03:30:15;;;;;;;16.95;10.90;;;;;;;5.82;100.00;62597.53;4932039;29;20511;-76
2023/04/11 03:32:42;;;;;;;15.27;11.40;;;;;;;5.87;100.00;62607.22;4932223;29;20225;-78
2023/04/11 03:35:09;;;;;;;15.27;11.85;;;;;;;5.85;100.00;62600.63;4929229;29;20278;-78
2023/04/11 03:37:36;;;;;;;13.65;9.40;;;;;;;5.85;100.00;62597.56;4932223;29;20238;-79
2023/04/11 03:40:07;;;;;;;16.17;11.48;;;;;;;5.87;100.00;62601.66;4932163;29;20202;-79
2023/04/11 03:42:35;;;;;;;14.73;11.20;;;;;;;5.85;100.00;62598.09;4930785;29;20461;-79
2023/04/11 03:45:03;;;;;;;20.08;13.50;;;;;;;5.76;100.00;62591.31;4924718;29;20199;-78
2023/04/11 03:47:30;;;;;;;12.55;10.25;;;;;;;5.79;100.00;62591.91;4926123;29;20253;-80
2023/04/11 03:49:57;;;;;;;12.20;9.95;;;;;;;5.79;100.00;62596.44;4932996;29;20238;-78
2023/04/11 03:52:24;;;;;;;17.00;12.40;;;;;;;5.71;100.00;62586.16;4931879;29;20254;-79
2023/04/11 03:54:52;;;;;;;16.80;11.98;;;;;;;5.74;100.00;62583.69;4924696;29;20403;-79
2023/04/11 03:57:19;;;;;;;17.35;12.60;;;;;;;5.79;100.00;62594.44;4930516;29;20436;-82
2023/04/11 03:59:47;;;;;;;16.20;10.13;;;;;;;5.80;100.00;62600.50;4933263;29;20220;-79
2023/04/11 04:02:15;;;;;;;18.23;12.43;;;;;;;5.80;100.00;62594.94;4928000;29;20297;-80
2023/04/11 04:04:45;;;;;;;17.90;13.25;;;;;;;5.77;100.00;62596.91;4919016;29;20279;-78
2023/04/11 04:07:12;;;;;;;18.33;11.82;;;;;;;5.67;100.00;62579.53;4930570;29;20230;-78
2023/04/11 04:09:40;;;;;;;16.30;12.18;;;;;;;5.73;100.00;62588.22;4931679;29;20447;-79
2023/04/11 04:12:07;;;;;;;17.15;12.93;;;;;;;5.68;100.00;62580.56;4925876;29;20510;-79
2023/04/11 04:14:35;;;;;;;17.45;12.18;;;;;;;5.67;100.00;62579.00;4929543;29;20233;-77
2023/04/11 04:17:03;;;;;;;17.77;12.60;;;;;;;5.71;100.00;62586.16;4932966;29;20225;-80
2023/04/11 04:19:31;;;;;;;18.52;12.77;;;;;;;5.64;100.00;62578.44;4930302;29;20228;-78
2023/04/11 04:21:58;;;;;;;16.52;12.00;;;;;;;5.66;100.00;62578.50;4927727;29;20222;-79
2023/04/11 04:24:25;;;;;;;17.23;12.20;;;;;;;5.70;100.00;62585.16;4931059;29;20214;-79
2023/04/11 04:26:52;;;;;;;17.38;12.82;;;;;;;5.56;100.00;62575.78;4929957;29;20545;-77
2023/04/11 04:29:19;;;;;;;17.17;13.10;;;;;;;5.63;100.00;62577.41;4928830;29;20249;-79
2023/04/11 04:31:49;;;;;;;17.58;12.18;;;;;;;5.67;100.00;62582.06;4928776;29;20222;-79
2023/04/11 04:34:20;;;;;;;17.52;14.00;;;;;;;5.76;100.00;62591.31;4929828;29;20761;-79
2023/04/11 04:36:48;;;;;;;17.63;12.68;;;;;;;5.81;100.00;62596.50;4928652;29;20222;-79
2023/04/11 04:39:18;;;;;;;15.13;11.75;;;;;;;5.76;100.00;62593.34;4926631;29;20257;-77
2023/04/11 04:41:47;;;;;;;15.57;11.60;;;;;;;5.69;100.00;62584.09;4930265;29;20226;-78
2023/04/11 04:44:15;;;;;;;14.57;11.13;;;;;;;5.65;100.00;62584.53;4931597;29;20202;-77
2023/04/11 04:46:42;;;;;;;21.73;13.45;;;;;;;5.62;100.00;62576.38;4932075;29;20221;-79
2023/04/11 04:49:10;;;;;;;16.40;13.18;;;;;;;5.61;100.00;62580.91;4929334;29;20239;-79
2023/04/11 04:51:39;;;;;;;20.42;13.63;;;;;;;5.66;100.00;62578.50;4928843;29;20218;-78
2023/04/11 04:54:07;;;;;;;19.95;12.52;;;;;;;5.66;100.00;62578.50;4929927;29;20206;-82
2023/04/11 04:56:34;;;;;;;19.48;13.23;;;;;;;5.67;100.00;62579.00;4929230;29;20422;-77
2023/04/11 04:59:01;;;;;;;18.77;13.85;;;;;;;5.66;100.00;62575.97;4918839;29;20205;-78
2023/04/11 05:01:28;;;;;;;18.95;12.77;;;;;;;5.59;100.00;62571.28;4930905;29;20201;-78
2023/04/11 05:03:58;;;;;;;18.38;13.32;;;;;;;5.66;100.00;62583.53;4932894;29;20210;-81
2023/04/11 05:06:28;;;;;;;18.02;12.60;;;;;;;5.75;100.00;62594.81;4923797;29;20423;-79
2023/04/11 05:08:57;;;;;;;19.83;13.25;;;;;;;5.71;100.00;62583.66;4922602;29;20237;-78
2023/04/11 05:11:24;;;;;;;20.75;13.52;;;;;;;5.75;100.00;62590.31;4931928;29;20206;-78
2023/04/11 05:13:52;;;;;;;22.33;13.77;;;;;;;5.67;100.00;62582.06;4931157;29;20233;-79
2023/04/11 05:16:19;;;;;;;16.20;12.30;;;;;;;5.78;100.00;62592.88;4932022;29;20515;-78
2023/04/11 05:18:46;;;;;;;18.27;12.90;;;;;;;5.83;100.00;62598.06;4928605;29;20222;-78
2023/04/11 05:21:14;;;;;;;21.88;13.02;;;;;;;5.82;100.00;62599.53;4929935;29;20281;-79
2023/04/11 05:23:42;;;;;;;11.52;8.80;;;;;;;5.79;100.00;62591.38;4929814;29;20206;-78
2023/04/11 05:26:11;;;;;;;17.10;13.10;;;;;;;5.94;100.00;62606.84;4925760;29;20445;-79
2023/04/11 05:28:38;;;;;;;16.88;12.07;;;;;;;5.94;100.00;62611.91;4912785;29;20262;-78
2023/04/11 05:31:05;;;;;;;18.90;11.65;;;;;;;5.90;100.00;62607.28;4912036;29;20210;-79
2023/04/11 05:33:32;;;;;;;18.33;11.82;;;;;;;6.06;100.00;62616.69;4915176;29;20229;-80
2023/04/11 05:36:00;;;;;;;16.23;10.80;;;;;;;6.04;100.00;62616.66;4932193;29;20257;-78
2023/04/11 05:38:27;;;;;;;16.45;11.52;;;;;;;6.00;100.00;62617.56;4930313;29;20237;-79
2023/04/11 05:40:54;;;;;;;15.40;11.55;;;;;;;6.10;100.00;62623.34;4930757;29;20222;-78
2023/04/11 05:43:23;;;;;;;18.35;13.00;;;;;;;6.21;100.00;62634.16;4932371;29;20257;-79
2023/04/11 05:45:51;;;;;;;16.85;12.38;;;;;;;6.30;100.00;62648.50;4932672;29;20197;-81
2023/04/11 05:48:18;;;;;;;19.65;12.45;;;;;;;6.22;100.00;62640.25;4932419;29;20250;-79
2023/04/11 05:50:46;;;;;;;16.98;11.85;;;;;;;6.33;100.00;62649.59;4934693;29;20210;-82
2023/04/11 05:53:13;;;;;;;16.25;12.13;;;;;;;6.48;100.00;62670.13;4927223;29;20285;-78
2023/04/11 05:55:39;;;;;;;15.85;12.50;;;;;;;6.45;100.00;62661.97;4926684;29;20202;-78
2023/04/11 05:58:06;;;;;;;14.27;11.50;;;;;;;6.57;100.00;62673.81;4930663;29;20238;-78
2023/04/11 06:00:37;;;;;;;14.90;10.98;;;;;;;6.61;100.00;62680.97;4930091;29;20237;-79
2023/04/11 06:03:04;;;;;;;13.60;10.77;;;;;;;6.86;100.00;62703.72;4913851;29;20259;-79
2023/04/11 06:05:33;;;;;;;12.07;9.45;;;;;;;6.72;100.00;62687.28;4919720;29;20207;-78
2023/04/11 06:08:01;;;;;;;12.80;10.65;;;;;;;6.77;100.00;62691.91;4910419;29;20222;-79
2023/04/11 06:10:29;;;;;;;13.45;9.90;;;;;;;6.87;100.00;62702.22;4921760;29;20293;-78
2023/04/11 06:12:59;;;;;;;13.60;9.60;;;;;;;6.79;100.00;62694.50;4932063;29;20222;-80
2023/04/11 06:15:26;;;;;;;11.75;9.38;;;;;;;6.92;100.00;62709.91;4933617;29;20238;-79
2023/04/11 06:17:55;;;;;;;13.13;10.30;;;;;;;6.97;100.00;62717.59;4933610;29;20225;-79
2023/04/11 06:20:23;;;;;;;14.38;10.52;;;;;;;6.97;100.00;62717.59;4933963;29;20210;-79
2023/04/11 06:22:51;;;;;;;12.02;9.85;;;;;;;7.04;100.00;62725.34;4933704;29;20237;-80
2023/04/11 06:25:19;;;;;;;10.90;8.75;;;;;;;6.91;100.00;62706.88;4934746;29;20209;-79
2023/04/11 06:27:46;;;;;;;12.07;9.25;;;;;;;6.96;100.00;62716.56;4929309;29;20226;-80
2023/04/11 06:30:14;;;;;;;14.32;10.52;;;;;;;7.07;100.00;62728.44;4937303;29;20234;-78
2023/04/11 06:32:42;;;;;;;13.50;9.30;;;;;;;7.23;100.00;62741.38;4936143;29;20242;-79
2023/04/11 06:35:10;;;;;;;13.15;8.98;;;;;;;7.23;100.00;62744.41;4929858;29;20523;-81
2023/04/11 06:37:37;;;;;;;15.38;10.18;;;;;;;7.12;100.00;62735.63;4924634;29;20535;-78
2023/04/11 06:40:05;;;;;;;12.32;9.95;;;;;;;7.25;100.00;62743.94;4934252;29;20202;-80
2023/04/11 06:42:33;;;;;;;10.55;8.73;;;;;;;7.42;100.00;62758.97;4935529;29;20257;-80
2023/04/11 06:45:00;;;;;;;14.23;9.07;;;;;;;7.55;100.00;62774.41;4921974;29;20230;-81
2023/04/11 06:47:26;;;;;;;10.85;9.15;;;;;;;7.64;100.00;62783.69;4936811;29;20289;-79
2023/04/11 06:49:54;;;;;;;9.65;7.28;;;;;;;7.41;100.00;62759.94;4934520;29;20233;-79
2023/04/11 06:52:23;;;;;;;10.52;8.88;;;;;;;7.67;100.00;62789.84;4933045;29;20248;-79
2023/04/11 06:54:50;;;;;;;9.57;8.57;;;;;;;7.60;100.00;62780.09;4915270;29;20203;-80
2023/04/11 06:57:17;;;;;;;11.85;9.20;;;;;;;7.57;100.00;62779.53;4916395;29;20249;-79
2023/04/11 06:59:45;;;;;;;11.18;8.57;;;;;;;7.62;100.00;62784.16;4914542;29;20218;-80
2023/04/11 07:02:11;;;;;;;9.05;8.15;;;;;;;7.48;100.00;62770.22;4915257;29;20419;-79
2023/04/11 07:04:38;;;;;;;9.57;8.05;;;;;;;7.53;100.00;62772.84;4929674;29;20206;-79
2023/04/11 07:07:05;;;;;;;9.88;7.95;;;;;;;7.52;100.00;62776.91;4929068;29;20214;-79
2023/04/11 07:09:33;;;;;;;8.90;7.57;;;;;;;7.52;100.00;62773.84;4933110;29;20233;-80
2023/04/11 07:12:01;;;;;;;10.77;8.43;;;;;;;7.60;100.00;62782.63;4937000;29;20222;-79
2023/04/11 07:14:28;;;;;;;12.65;9.50;;;;;;;7.75;100.00;62800.63;4933433;29;20240;-80
2023/04/11 07:16:54;;;;;;;9.52;8.55;;;;;;;7.88;99.19;62806.47;4927680;29;20222;-80
2023/04/11 07:19:24;;;;;;;14.05;8.98;;;;;;;7.85;99.88;62805.38;4936782;29;20225;-79
2023/04/11 07:21:51;;;;;;;11.30;8.63;;;;;;;7.95;98.00;62816.22;4931965;29;20440;-78
2023/04/11 07:24:19;;;;;;;13.63;10.05;;;;;;;7.82;100.00;62802.25;4933871;29;20210;-80
2023/04/11 07:26:49;;;;;;;11.45;8.20;;;;;;;7.95;98.87;62813.69;4933150;29;20250;-80
2023/04/11 07:29:16;;;;;;;10.63;8.13;;;;;;;8.02;98.68;62823.44;4933112;29;20240;-78
2023/04/11 07:31:43;;;;;;;9.27;7.90;;;;;;;8.12;98.72;62836.31;4932128;29;20229;-82
2023/04/11 07:34:11;;;;;;;7.75;6.85;;;;;;;8.07;97.22;62826.06;4925401;29;20194;-80
2023/04/11 07:36:38;;;;;;;8.35;6.85;;;;;;;8.15;96.61;62839.41;4930936;29;20262;-80
2023/04/11 07:39:07;;;;;;;8.45;7.45;;;;;;;8.19;95.81;62837.94;4918273;29;20411;-81
2023/04/11 07:41:35;;;;;;;7.80;7.10;;;;;;;8.26;94.61;62844.69;4931701;29;20276;-80
2023/04/11 07:44:06;;;;;;;9.10;7.18;;;;;;;8.30;93.18;62851.34;4932648;29;20442;-81
2023/04/11 07:46:33;;;;;;;8.07;7.28;;;;;;;8.37;93.52;62859.09;4930084;29;20484;-80
2023/04/11 07:49:01;;;;;;;8.20;7.15;;;;;;;8.43;92.60;62862.22;4922243;29;20248;-81
2023/04/11 07:51:28;;;;;;;9.07;7.45;;;;;;;8.41;91.74;62868.28;4934903;29;20194;-80
2023/04/11 07:53:55;;;;;;;11.75;7.90;;;;;;;8.53;90.98;62877.63;4932806;29;20210;-79
2023/04/11 07:56:22;;;;;;;8.27;7.22;;;;;;;8.65;91.88;62890.03;4928003;29;20251;-81
2023/04/11 07:58:49;;;;;;;8.10;7.30;;;;;;;8.76;92.13;62899.38;4920205;29;20202;-80
2023/04/11 08:01:22;;;;;;;8.90;7.40;;;;;;;8.83;92.35;62906.63;4928615;29;20577;-81
2023/04/11 08:03:49;;;;;;;8.55;7.18;;;;;;;9.01;91.78;62925.22;4933932;29;20197;-80
2023/04/11 08:06:17;;;;;;;8.30;6.43;;;;;;;9.11;88.87;62935.03;4927778;29;20201;-78
2023/04/11 08:08:44;;;;;;;7.60;6.82;;;;;;;9.05;89.51;62928.84;4926207;29;20206;-79
2023/04/11 08:11:13;;;;;;;8.98;7.05;;;;;;;9.16;90.28;62940.72;4933474;29;20259;-79
2023/04/11 08:13:40;;;;;;;8.13;7.28;;;;;;;9.25;90.36;62954.56;4926913;29;20222;-78
2023/04/11 08:16:09;;;;;;;8.18;7.25;;;;;;;9.31;88.59;62958.25;4931423;29;20202;-79
2023/04/11 08:18:40;;;;;;;8.40;7.22;;;;;;;9.48;87.92;62970.22;4934408;29;20226;-80
2023/04/11 08:21:09;;;;;;;8.32;6.97;;;;;;;9.60;87.94;62987.72;4933289;29;20225;-80
2023/04/11 08:23:38;;;;;;;9.48;7.18;;;;;;;9.71;87.37;62996.56;4923067;29;20229;-79
2023/04/11 08:26:06;;;;;;;7.25;6.55;;;;;;;9.69;85.32;62997.53;4925333;29;20261;-81
2023/04/11 08:28:33;;;;;;;9.05;6.85;;;;;;;9.66;85.89;62988.84;4931302;29;20222;-80
2023/04/11 08:31:01;;;;;;;7.10;6.40;;;;;;;9.59;85.51;62986.69;4930870;29;20270;-77
2023/04/11 08:33:28;;;;;;;6.88;5.60;;;;;;;9.50;84.54;62977.91;4922214;29;20218;-79
2023/04/11 08:35:57;;;;;;;7.75;6.25;;;;;;;9.65;82.16;62995.41;4925675;29;20210;-79
2023/04/11 08:38:24;;;;;;;7.50;6.25;;;;;;;9.54;82.54;62976.44;4923906;29;20229;-80
2023/04/11 08:40:51;;;;;;;7.63;6.82;;;;;;;9.52;83.18;62974.38;4915616;29;20219;-77
2023/04/11 08:43:19;;;;;;;8.45;6.25;;;;;;;9.43;84.55;62967.59;4912398;29;20458;-79
2023/04/11 08:45:46;;;;;;;6.78;6.07;;;;;;;9.72;82.84;63000.66;4932456;29;20216;-80
2023/04/11 08:48:13;;;;;;;8.00;6.55;;;;;;;9.89;80.75;63020.78;4937193;29;20230;-83
2023/04/11 08:50:41;;;;;;;6.85;6.25;;;;;;;9.92;80.56;63020.81;4932766;29;20233;-78
2023/04/11 08:53:10;;;;;;;7.20;6.47;;;;;;;10.09;80.66;63033.34;4929867;29;20423;-80
2023/04/11 08:55:44;;;;;;;8.50;7.25;;;;;;;10.12;80.93;63044.06;4934742;29;20242;-81
2023/04/11 08:58:12;;;;;;;8.57;6.88;;;;;;;10.31;80.71;63059.16;4931470;29;20217;-80
2023/04/11 09:00:39;;;;;;;7.70;6.72;;;;;;;10.10;81.51;63036.91;4928785;29;20242;-78
2023/04/11 09:03:08;;;;;;;7.15;6.43;;;;;;;10.42;79.76;63070.03;4926792;29;20230;-84
2023/04/11 09:05:39;;;;;;;8.10;6.50;;;;;;;10.57;77.53;63082.47;4921007;29;20206;-81
2023/04/11 09:08:07;;;;;;;6.97;6.00;;;;;;;10.43;77.28;63071.56;4918363;29;20243;-80
2023/04/11 09:10:36;;;;;;;8.40;6.18;;;;;;;9.80;79.18;63008.91;4920854;29;20249;-82
2023/04/11 09:13:19;;;;;;;6.75;6.03;;;;;;;9.79;81.62;63004.81;4919065;29;20219;-78
2023/04/11 09:15:47;;;;;;;8.75;6.32;;;;;;;9.91;82.18;63020.28;4921501;29;20503;-77
2023/04/11 09:18:31;;;;;;;7.15;6.43;;;;;;;10.04;81.21;63031.19;4923523;29;20219;-79
2023/04/11 09:20:59;;;;;;;7.75;6.82;;;;;;;10.35;77.04;63065.84;4923835;29;20210;-81
2023/04/11 09:23:26;;;;;;;7.22;6.50;;;;;;;10.43;74.64;63071.06;4924492;29;20214;-78
2023/04/11 09:25:54;;;;;;;7.20;6.50;;;;;;;10.53;74.85;63080.91;4921743;29;20193;-81
2023/04/11 09:28:22;;;;;;;6.65;5.68;;;;;;;10.20;77.48;63052.34;4923943;29;20234;-81
2023/04/11 09:30:51;;;;;;;7.35;6.65;;;;;;;10.15;76.17;63045.16;4923014;29;20268;-80
2023/04/11 09:33:21;;;;;;;8.80;7.15;;;;;;;10.06;78.68;63035.81;4918884;29;20286;-80
2023/04/11 09:35:49;;;;;;;6.97;6.13;;;;;;;10.58;77.50;63091.66;4918494;29;20226;-80
2023/04/11 09:38:30;;;;;;;6.63;5.15;;;;;;;10.86;71.84;63118.09;4918993;29;20242;-79
2023/04/11 09:40:59;;;;;;;7.75;6.05;;;;;;;11.16;69.76;63148.66;4921997;29;20254;-80
2023/04/11 09:43:50;;;;;;;7.25;6.53;;;;;;;10.83;70.96;63111.94;4920188;29;20580;-80
2023/04/11 09:46:19;;;;;;;8.73;6.50;;;;;;;10.72;68.05;63103.09;4921266;29;20245;-80
2023/04/11 09:48:48;;;;;;;8.95;6.43;;;;;;;10.99;66.90;63136.66;4927281;29;20202;-81
2023/04/11 09:51:16;;;;;;;7.25;6.38;;;;;;;10.99;68.72;63134.09;4925659;29;20236;-80
2023/04/11 09:53:43;;;;;;;8.73;7.05;;;;;;;11.05;66.46;63132.69;4927959;29;20205;-79
2023/04/11 09:56:14;;;;;;;6.88;6.20;;;;;;;10.92;68.37;63121.78;4928848;29;20261;-80
2023/04/11 09:58:42;;;;;;;7.35;6.65;;;;;;;11.04;68.04;63134.22;4926537;29;20200;-80
2023/04/11 10:01:10;;;;;;;7.10;6.43;;;;;;;10.91;69.25;63120.22;4919581;29;20226;-77
2023/04/11 10:03:39;;;;;;;7.65;6.82;;;;;;;11.11;68.23;63140.94;4924766;29;20277;-80
2023/04/11 10:06:09;;;;;;;7.40;5.97;;;;;;;11.25;66.82;63155.94;4921533;29;20558;-79
2023/04/11 10:08:37;;;;;;;8.77;7.85;;;;;;;10.88;69.32;63124.75;4917728;29;20307;-78
2023/04/11 10:11:06;;;;;;;6.95;6.25;;;;;;;10.62;69.52;63093.28;4925755;29;20286;-77
2023/04/11 10:13:43;;;;;;;7.50;6.60;;;;;;;10.56;69.14;63086.53;4923781;29;20461;-79
2023/04/11 10:16:12;;;;;;;7.63;6.20;;;;;;;10.83;65.65;63117.03;4920564;29;20198;-79
2023/04/11 10:19:19;;;;;;;7.53;6.80;;;;;;;10.59;67.33;63087.63;4925281;29;20220;-80
2023/04/11 10:21:45;;;;;;;7.43;6.70;;;;;;;10.99;65.58;63131.06;4922563;29;20230;-78
2023/04/11 10:24:14;;;;;;;5.57;5.07;;;;;;;10.69;67.48;63100.50;4927505;29;20218;-78
2023/04/11 10:26:52;;;;;;;8.05;7.25;;;;;;;10.89;67.24;63126.31;4921699;29;20228;-81
2023/04/11 10:29:52;;;;;;;7.03;6.28;;;;;;;11.39;61.21;63172.47;4927299;29;20214;-80
2023/04/11 10:32:25;;;;;;;7.35;6.57;;;;;;;11.86;58.96;63218.63;4926082;29;20237;-79
2023/04/11 10:35:22;;;;;;;7.85;6.40;;;;;;;12.05;56.59;63240.88;4922852;29;20233;-80
2023/04/11 10:37:50;;;;;;;4.22;3.80;;;;;;;11.80;55.68;63214.47;4901156;29;20305;-77
2023/04/11 10:40:19;;;;;;;6.25;5.57;;;;;;;11.22;60.72;63150.28;4912111;29;20207;-77
2023/04/11 10:42:47;;;;;;;9.32;7.00;;;;;;;10.97;62.99;63126.97;4919137;29;20233;-78
2023/04/11 10:45:17;;;;;;;6.22;5.60;;;;;;;11.17;57.79;63147.66;4922488;29;20203;-77
2023/04/11 10:47:59;;;;;;;8.32;6.63;;;;;;;11.20;59.60;63152.81;4916833;29;20475;-79
2023/04/11 10:50:39;;;;;;;10.25;6.90;;;;;;;10.94;63.16;63126.38;4923358;29;20240;-78
2023/04/11 10:53:08;;;;;;;9.15;6.65;;;;;;;11.37;59.74;63170.41;4925778;29;20233;-81
2023/04/11 10:55:48;;;;;;;6.10;5.60;;;;;;;10.89;55.67;63121.22;4921773;29;20222;-77
2023/04/11 10:58:18;;;;;;;8.13;7.07;;;;;;;11.45;58.55;63176.66;4916735;29;20230;-80
2023/04/11 11:01:18;;;;;;;7.85;7.05;;;;;;;11.70;58.53;63204.09;4919709;29;20226;-80
2023/04/11 11:03:53;;;;;;;6.68;6.07;;;;;;;12.16;55.13;63249.72;4904777;29;20567;-80
2023/04/11 11:06:21;;;;;;;7.40;6.70;;;;;;;12.55;54.65;63295.25;4921988;29;20473;-81
2023/04/11 11:08:48;;;;;;;7.03;6.00;;;;;;;12.62;52.18;63296.88;4926633;29;20214;-79
2023/04/11 11:11:18;;;;;;;9.00;5.72;;;;;;;12.44;52.61;63278.75;4923797;29;20289;-81
2023/04/11 11:13:46;;;;;;;6.68;6.07;;;;;;;12.02;53.64;63234.69;4916121;29;20237;-79
2023/04/11 11:16:16;;;;;;;6.43;5.80;;;;;;;11.89;53.23;63226.34;4921284;29;20499;-77
2023/04/11 11:18:47;;;;;;;7.50;5.00;;;;;;;11.73;53.30;63209.75;4923277;29;20207;-77
2023/04/11 11:21:18;;;;;;;4.90;4.45;;;;;;;11.74;53.81;63208.75;4919512;29;20480;-77
2023/04/11 11:23:56;;;;;;;7.88;6.57;;;;;;;11.65;56.33;63194.31;4923925;29;20226;-80
2023/04/11 11:26:35;;;;;;;6.13;5.53;;;;;;;12.07;52.98;63242.44;4917108;29;20208;-80
2023/04/11 11:29:02;;;;;;;6.05;5.45;;;;;;;12.05;52.22;63245.47;4918705;29;20202;-81
2023/04/11 11:31:38;;;;;;;7.03;6.00;;;;;;;11.94;53.00;63234.06;4921527;29;20261;-79
2023/04/11 11:34:07;;;;;;;7.18;6.47;;;;;;;11.56;53.94;63190.09;4923184;29;20202;-80